Time;durP1;ratioP1;P1;durP2;ratioP2;P2;SDS_P1;SDS_P2;PMS_P1;PMS_P2;Temp;Humidity;BMP_temperature;BMP_pressure;BME280_temperature;BME280_humidity;BME280_pressure;Samples;Min_cycle;Max_cycle;Signal;HPM_P1;HPM_P2
2022/07/19 00:01:35;;;;;;;5.40;2.90;;;;;;;;;;109110;1260;34242;-40
2022/07/19 00:04:08;;;;;;;4.80;2.90;;;;;;;;;;109122;1253;34006;-41
2022/07/19 00:06:39;;;;;;;;;;;;;;;;;;109189;1253;33819;-39
2022/07/19 00:09:14;;;;;;;5.80;3.20;;;;;;;;;;109108;1253;33865;-40
2022/07/19 00:11:48;;;;;;;5.10;3.10;;;;;;;;;;109134;1253;33904;-39
2022/07/19 00:14:21;;;;;;;4.60;2.80;;;;;;;;;;109108;1260;34102;-40
2022/07/19 00:16:54;;;;;;;5.30;3.30;;;;;;;;;;109164;1254;34142;-40
2022/07/19 00:19:27;;;;;;;4.90;2.80;;;;;;;;;;109159;1253;33901;-40
2022/07/19 00:21:59;;;;;;;4.50;2.80;;;;;;;;;;109135;1260;34295;-40
2022/07/19 00:24:32;;;;;;;5.50;3.40;;;;;;;;;;109138;1253;34284;-41
2022/07/19 00:27:04;;;;;;;6.30;3.60;;;;;;;;;;109123;1253;33713;-39
2022/07/19 00:29:37;;;;;;;5.20;3.00;;;;;;;;;;109149;1254;34165;-39
2022/07/19 00:32:10;;;;;;;5.90;3.00;;;;;;;;;;109150;1253;33447;-39
2022/07/19 00:34:43;;;;;;;4.40;3.00;;;;;;;;;;109148;1260;34090;-39
2022/07/19 00:37:16;;;;;;;6.20;3.00;;;;;;;;;;109103;1254;33987;-41
2022/07/19 00:39:52;;;;;;;4.60;2.80;;;;;;;;;;109141;1254;33543;-40
2022/07/19 00:42:24;;;;;;;5.50;3.00;;;;;;;;;;109154;1253;33980;-41
2022/07/19 00:44:57;;;;;;;5.50;3.30;;;;;;;;;;109082;1253;33827;-40
2022/07/19 00:47:29;;;;;;;4.80;3.10;;;;;;;;;;108733;1257;33859;-40
2022/07/19 00:50:03;;;;;;;5.20;3.30;;;;;;;;;;109119;1254;33968;-39
2022/07/19 00:52:36;;;;;;;5.70;3.50;;;;;;;;;;109106;1260;34223;-39
2022/07/19 00:55:09;;;;;;;;;;;;;;;;;;109108;1254;33432;-39
2022/07/19 00:57:42;;;;;;;5.50;3.60;;;;;;;;;;109145;1254;33855;-40
2022/07/19 01:00:19;;;;;;;6.00;3.80;;;;;;;;;;109135;1260;34114;-40
2022/07/19 01:02:53;;;;;;;5.50;3.00;;;;;;;;;;109119;1253;33309;-40
2022/07/19 01:05:25;;;;;;;6.20;3.40;;;;;;;;;;109134;1254;33302;-39
2022/07/19 01:07:58;;;;;;;5.20;3.80;;;;;;;;;;109100;1254;33737;-41
2022/07/19 01:10:31;;;;;;;5.70;3.50;;;;;;;;;;109146;1253;33373;-41
2022/07/19 01:13:03;;;;;;;5.80;3.50;;;;;;;;;;109144;1254;34545;-40
2022/07/19 01:15:36;;;;;;;6.50;3.90;;;;;;;;;;109125;1253;33764;-40
2022/07/19 01:18:08;;;;;;;5.90;3.70;;;;;;;;;;109096;1253;34495;-39
2022/07/19 01:20:40;;;;;;;5.40;3.50;;;;;;;;;;109134;1254;33409;-39
2022/07/19 01:23:15;;;;;;;5.20;3.50;;;;;;;;;;109085;1260;34288;-41
2022/07/19 01:25:48;;;;;;;5.30;3.80;;;;;;;;;;108783;1257;33958;-41
2022/07/19 01:28:24;;;;;;;5.90;3.60;;;;;;;;;;109081;1253;33777;-39
2022/07/19 01:30:56;;;;;;;6.60;3.90;;;;;;;;;;109108;1253;33823;-41
2022/07/19 01:33:28;;;;;;;5.30;3.60;;;;;;;;;;109125;1260;34442;-40
2022/07/19 01:36:01;;;;;;;5.60;3.90;;;;;;;;;;109127;1253;33709;-40
2022/07/19 01:38:33;;;;;;;5.10;3.50;;;;;;;;;;109143;1254;34201;-39
2022/07/19 01:41:06;;;;;;;7.30;4.00;;;;;;;;;;109111;1254;33791;-40
2022/07/19 01:43:39;;;;;;;6.20;3.70;;;;;;;;;;109120;1260;34070;-39
2022/07/19 01:46:12;;;;;;;5.20;3.80;;;;;;;;;;109155;1253;33747;-39
2022/07/19 01:48:47;;;;;;;6.20;3.80;;;;;;;;;;109138;1253;34342;-39
2022/07/19 01:51:20;;;;;;;5.30;3.70;;;;;;;;;;109100;1253;33910;-40
2022/07/19 01:53:52;;;;;;;5.30;3.90;;;;;;;;;;109155;1253;33888;-40
2022/07/19 01:56:25;;;;;;;7.00;4.40;;;;;;;;;;109130;1260;33473;-39
2022/07/19 01:59:00;;;;;;;6.50;4.30;;;;;;;;;;109173;1254;33836;-40
2022/07/19 02:01:32;;;;;;;6.00;4.10;;;;;;;;;;109141;1253;33704;-39
2022/07/19 02:04:05;;;;;;;6.60;3.90;;;;;;;;;;109104;1260;34362;-40
2022/07/19 02:06:37;;;;;;;5.60;3.80;;;;;;;;;;109139;1253;33339;-40
2022/07/19 02:09:12;;;;;;;5.10;3.80;;;;;;;;;;109141;1253;33828;-40
2022/07/19 02:11:44;;;;;;;5.90;4.60;;;;;;;;;;109125;1260;33869;-40
2022/07/19 02:14:16;;;;;;;6.90;4.30;;;;;;;;;;109167;1253;33351;-40
2022/07/19 02:16:49;;;;;;;5.70;3.80;;;;;;;;;;109108;1253;34104;-39
2022/07/19 02:19:21;;;;;;;6.10;4.20;;;;;;;;;;109113;1253;34001;-39
2022/07/19 02:21:54;;;;;;;5.60;4.00;;;;;;;;;;109172;1253;34086;-39
2022/07/19 02:24:26;;;;;;;6.50;4.20;;;;;;;;;;109126;1260;33810;-39
2022/07/19 02:26:59;;;;;;;6.50;4.10;;;;;;;;;;109126;1253;33791;-39
2022/07/19 02:29:32;;;;;;;7.40;4.50;;;;;;;;;;109179;1253;34346;-39
2022/07/19 02:32:06;;;;;;;6.20;4.40;;;;;;;;;;109113;1253;33855;-39
2022/07/19 02:34:38;;;;;;;5.80;4.30;;;;;;;;;;109157;1260;34191;-39
2022/07/19 02:37:12;;;;;;;7.00;4.20;;;;;;;;;;109122;1253;33906;-39
2022/07/19 02:39:45;;;;;;;5.60;4.30;;;;;;;;;;109150;1253;33533;-41
2022/07/19 02:42:17;;;;;;;5.60;4.10;;;;;;;;;;109128;1254;34167;-39
2022/07/19 02:44:49;;;;;;;5.90;4.30;;;;;;;;;;109141;1260;34326;-39
2022/07/19 02:47:21;;;;;;;6.10;4.40;;;;;;;;;;109127;1260;34337;-39
2022/07/19 02:49:57;;;;;;;6.10;4.50;;;;;;;;;;109121;1253;34047;-39
2022/07/19 02:52:31;;;;;;;6.30;4.10;;;;;;;;;;109155;1253;33760;-39
2022/07/19 02:55:04;;;;;;;7.10;4.50;;;;;;;;;;109148;1253;34215;-39
2022/07/19 02:57:36;;;;;;;6.10;4.40;;;;;;;;;;109115;1254;33723;-41
2022/07/19 03:00:12;;;;;;;6.20;4.30;;;;;;;;;;109137;1253;33817;-39
2022/07/19 03:02:45;;;;;;;6.00;4.30;;;;;;;;;;109099;1254;34203;-43
2022/07/19 03:05:20;;;;;;;6.80;4.30;;;;;;;;;;109134;1260;34276;-39
2022/07/19 03:07:55;;;;;;;6.90;4.20;;;;;;;;;;109159;1253;33771;-41
2022/07/19 03:10:30;;;;;;;6.30;4.60;;;;;;;;;;109119;1260;34431;-40
2022/07/19 03:13:06;;;;;;;7.40;4.60;;;;;;;;;;109143;1253;33746;-39
2022/07/19 03:15:39;;;;;;;5.70;4.00;;;;;;;;;;109123;1254;33847;-41
2022/07/19 03:18:11;;;;;;;6.50;4.00;;;;;;;;;;109151;1253;33690;-39
2022/07/19 03:20:47;;;;;;;5.60;4.00;;;;;;;;;;109150;1253;33716;-39
2022/07/19 03:23:19;;;;;;;6.20;4.00;;;;;;;;;;109133;1253;33836;-39
2022/07/19 03:25:54;;;;;;;6.20;4.50;;;;;;;;;;109151;1253;33876;-39
2022/07/19 03:28:27;;;;;;;6.70;4.60;;;;;;;;;;109117;1253;33297;-39
2022/07/19 03:30:59;;;;;;;5.70;4.30;;;;;;;;;;109147;1253;34179;-39
2022/07/19 03:33:34;;;;;;;6.40;3.90;;;;;;;;;;109123;1253;34268;-39
2022/07/19 03:36:08;;;;;;;6.20;4.30;;;;;;;;;;109144;1253;33967;-39
2022/07/19 03:38:40;;;;;;;6.20;4.30;;;;;;;;;;109150;1254;33929;-40
2022/07/19 03:41:12;;;;;;;5.80;4.30;;;;;;;;;;109143;1254;34249;-40
2022/07/19 03:43:44;;;;;;;5.80;4.60;;;;;;;;;;109136;1253;33946;-39
2022/07/19 03:46:19;;;;;;;6.70;4.70;;;;;;;;;;109139;1253;33933;-39
2022/07/19 03:48:51;;;;;;;5.90;4.10;;;;;;;;;;109135;1253;33743;-39
2022/07/19 03:51:24;;;;;;;6.00;4.90;;;;;;;;;;109170;1253;33788;-39
2022/07/19 03:53:56;;;;;;;5.60;4.10;;;;;;;;;;109138;1253;33839;-39
2022/07/19 03:56:29;;;;;;;5.90;4.50;;;;;;;;;;109124;1254;33860;-41
2022/07/19 03:59:01;;;;;;;6.30;4.50;;;;;;;;;;109127;1253;33488;-40
2022/07/19 04:01:34;;;;;;;6.20;4.30;;;;;;;;;;109108;1253;33819;-40
2022/07/19 04:04:09;;;;;;;6.00;4.50;;;;;;;;;;109149;1253;33787;-40
2022/07/19 04:06:41;;;;;;;7.00;4.70;;;;;;;;;;109140;1260;34346;-39
2022/07/19 04:09:13;;;;;;;5.90;4.10;;;;;;;;;;109096;1261;33440;-39
2022/07/19 04:11:45;;;;;;;6.70;4.80;;;;;;;;;;109100;1253;33967;-39
2022/07/19 04:14:21;;;;;;;6.50;4.50;;;;;;;;;;109108;1254;34160;-39
2022/07/19 04:16:55;;;;;;;6.30;4.60;;;;;;;;;;109128;1253;34191;-40
2022/07/19 04:19:27;;;;;;;6.00;4.40;;;;;;;;;;109136;1253;33684;-40
2022/07/19 04:21:59;;;;;;;5.80;4.40;;;;;;;;;;109129;1260;34192;-39
2022/07/19 04:24:31;;;;;;;5.90;4.50;;;;;;;;;;109099;1260;33935;-39
2022/07/19 04:27:04;;;;;;;5.50;4.40;;;;;;;;;;109141;1253;33888;-40
2022/07/19 04:29:38;;;;;;;6.80;4.50;;;;;;;;;;109150;1260;33322;-39
2022/07/19 04:32:10;;;;;;;6.20;4.70;;;;;;;;;;109147;1253;33860;-40
2022/07/19 04:34:42;;;;;;;6.30;4.90;;;;;;;;;;109135;1253;34159;-39
2022/07/19 04:37:15;;;;;;;6.30;4.30;;;;;;;;;;109123;1260;34113;-39
2022/07/19 04:39:47;;;;;;;7.30;4.70;;;;;;;;;;109113;1254;33947;-39
2022/07/19 04:42:19;;;;;;;5.70;4.50;;;;;;;;;;109127;1253;33704;-41
2022/07/19 04:44:51;;;;;;;6.80;5.20;;;;;;;;;;108751;1253;504448;-39
2022/07/19 04:47:24;;;;;;;6.10;4.50;;;;;;;;;;109141;1260;33833;-39
2022/07/19 04:49:56;;;;;;;6.10;4.30;;;;;;;;;;109126;1260;34126;-39
2022/07/19 04:52:29;;;;;;;6.50;4.60;;;;;;;;;;109141;1253;33852;-41
2022/07/19 04:55:02;;;;;;;7.00;4.60;;;;;;;;;;109121;1253;33862;-39
2022/07/19 04:57:34;;;;;;;7.30;4.80;;;;;;;;;;109184;1260;33879;-41
2022/07/19 05:00:11;;;;;;;7.00;4.80;;;;;;;;;;109126;1253;33987;-40
2022/07/19 05:02:44;;;;;;;7.30;4.80;;;;;;;;;;109149;1253;33717;-41
2022/07/19 05:05:16;;;;;;;8.20;5.30;;;;;;;;;;109082;1253;33930;-39
2022/07/19 05:07:50;;;;;;;7.30;4.80;;;;;;;;;;109135;1260;34067;-40
2022/07/19 05:10:22;;;;;;;7.00;5.20;;;;;;;;;;109147;1260;34632;-39
2022/07/19 05:12:54;;;;;;;7.30;4.80;;;;;;;;;;109079;1253;33778;-41
2022/07/19 05:15:30;;;;;;;7.20;4.70;;;;;;;;;;109138;1253;33829;-40
2022/07/19 05:18:02;;;;;;;8.00;4.80;;;;;;;;;;109132;1254;33725;-41
2022/07/19 05:20:36;;;;;;;6.70;4.60;;;;;;;;;;109150;1260;33457;-39
2022/07/19 05:23:09;;;;;;;6.70;5.10;;;;;;;;;;109145;1254;33972;-41
2022/07/19 05:25:44;;;;;;;7.80;4.40;;;;;;;;;;109133;1253;34106;-40
2022/07/19 05:28:16;;;;;;;7.40;5.40;;;;;;;;;;109125;1253;33483;-39
2022/07/19 05:30:48;;;;;;;8.90;4.40;;;;;;;;;;109139;1254;33929;-39
2022/07/19 05:33:21;;;;;;;8.60;5.40;;;;;;;;;;109138;1254;33383;-39
2022/07/19 05:35:56;;;;;;;7.70;4.60;;;;;;;;;;109143;1253;34471;-39
2022/07/19 05:38:29;;;;;;;6.50;4.80;;;;;;;;;;109140;1261;34086;-39
2022/07/19 05:41:00;;;;;;;;;;;;;;;;;;109113;1253;33749;-40
2022/07/19 05:43:32;;;;;;;6.60;4.70;;;;;;;;;;109111;1253;33435;-40
2022/07/19 05:46:05;;;;;;;6.40;4.50;;;;;;;;;;109114;1260;33969;-40
2022/07/19 05:48:38;;;;;;;9.70;5.00;;;;;;;;;;109122;1260;34266;-40
2022/07/19 05:51:10;;;;;;;8.70;5.00;;;;;;;;;;109131;1253;33865;-39
2022/07/19 05:53:43;;;;;;;6.90;5.10;;;;;;;;;;109139;1253;33962;-40
2022/07/19 05:56:15;;;;;;;7.10;4.70;;;;;;;;;;109140;1253;33755;-39
2022/07/19 05:58:49;;;;;;;6.90;5.00;;;;;;;;;;109145;1260;33887;-41
2022/07/19 06:01:22;;;;;;;7.70;5.10;;;;;;;;;;109130;1253;33704;-40
2022/07/19 06:03:58;;;;;;;7.00;5.30;;;;;;;;;;109179;1254;34305;-40
2022/07/19 06:06:33;;;;;;;7.40;5.10;;;;;;;;;;109128;1253;33080;-40
2022/07/19 06:09:07;;;;;;;7.30;5.20;;;;;;;;;;109122;1253;33946;-39
2022/07/19 06:11:43;;;;;;;7.40;5.10;;;;;;;;;;109096;1253;33830;-39
2022/07/19 06:14:15;;;;;;;7.30;4.90;;;;;;;;;;109144;1253;33730;-40
2022/07/19 06:16:47;;;;;;;8.10;5.20;;;;;;;;;;109149;1253;33570;-39
2022/07/19 06:19:19;;;;;;;6.80;5.30;;;;;;;;;;109126;1260;34114;-39
2022/07/19 06:21:52;;;;;;;7.70;5.30;;;;;;;;;;109092;1253;33817;-41
2022/07/19 06:24:24;;;;;;;7.50;5.20;;;;;;;;;;109098;1253;33688;-40
2022/07/19 06:26:56;;;;;;;7.80;5.00;;;;;;;;;;109125;1253;33777;-40
2022/07/19 06:29:28;;;;;;;7.50;5.50;;;;;;;;;;109140;1253;33550;-40
2022/07/19 06:32:04;;;;;;;9.30;5.30;;;;;;;;;;109130;1253;34113;-40
2022/07/19 06:34:36;;;;;;;13.20;6.20;;;;;;;;;;109136;1253;33794;-43
2022/07/19 06:37:09;;;;;;;9.50;6.20;;;;;;;;;;109116;1253;34105;-41
2022/07/19 06:39:42;;;;;;;9.40;6.10;;;;;;;;;;109138;1253;33792;-40
2022/07/19 06:42:14;;;;;;;11.90;6.90;;;;;;;;;;109155;1254;33313;-41
2022/07/19 06:44:47;;;;;;;11.60;6.40;;;;;;;;;;109109;1253;33991;-41
2022/07/19 06:47:20;;;;;;;10.30;5.70;;;;;;;;;;109117;1253;33979;-40
2022/07/19 06:49:55;;;;;;;10.90;6.40;;;;;;;;;;109152;1254;33946;-39
2022/07/19 06:52:28;;;;;;;15.30;7.00;;;;;;;;;;109121;1253;33473;-38
2022/07/19 06:55:01;;;;;;;13.20;7.70;;;;;;;;;;108863;1253;33924;-46
2022/07/19 06:57:34;;;;;;;11.70;6.80;;;;;;;;;;108888;1253;34365;-39
2022/07/19 07:00:09;;;;;;;13.00;6.70;;;;;;;;;;109005;1253;33850;-37
2022/07/19 07:02:44;;;;;;;10.90;6.40;;;;;;;;;;109044;1254;34119;-36
2022/07/19 07:05:17;;;;;;;11.60;7.10;;;;;;;;;;108917;1254;34313;-37
2022/07/19 07:07:54;;;;;;;11.70;7.20;;;;;;;;;;109010;1253;33800;-45
2022/07/19 07:10:26;;;;;;;10.80;7.00;;;;;;;;;;108915;1261;35154;-40
2022/07/19 07:12:58;;;;;;;11.50;6.30;;;;;;;;;;109024;1254;34019;-36
2022/07/19 07:15:31;;;;;;;10.20;6.30;;;;;;;;;;108914;1253;33929;-38
2022/07/19 07:18:03;;;;;;;10.90;6.00;;;;;;;;;;109039;1253;33437;-40
2022/07/19 07:20:36;;;;;;;12.90;6.50;;;;;;;;;;109041;1263;34459;-39
2022/07/19 07:23:08;;;;;;;8.90;5.80;;;;;;;;;;108936;1254;34356;-37
2022/07/19 07:25:40;;;;;;;9.50;6.00;;;;;;;;;;109114;1253;33871;-37
2022/07/19 07:28:12;;;;;;;9.20;5.20;;;;;;;;;;109046;1254;33755;-41
2022/07/19 07:30:44;;;;;;;8.60;5.50;;;;;;;;;;108942;1262;33927;-43
2022/07/19 07:33:17;;;;;;;10.00;5.40;;;;;;;;;;109096;1262;33610;-42
2022/07/19 07:35:49;;;;;;;10.40;5.90;;;;;;;;;;108907;1253;33881;-41
2022/07/19 07:38:23;;;;;;;9.10;5.80;;;;;;;;;;108968;1260;33843;-42
2022/07/19 07:40:57;;;;;;;7.60;5.50;;;;;;;;;;109013;1254;33841;-41
2022/07/19 07:43:30;;;;;;;9.40;6.00;;;;;;;;;;108879;1254;33953;-38
2022/07/19 07:46:05;;;;;;;8.50;5.40;;;;;;;;;;109029;1253;33707;-39
2022/07/19 07:48:38;;;;;;;7.40;5.10;;;;;;;;;;108992;1253;33935;-38
2022/07/19 07:51:10;;;;;;;10.40;5.70;;;;;;;;;;108879;1262;33832;-39
2022/07/19 07:53:42;;;;;;;8.90;5.60;;;;;;;;;;108989;1260;34212;-43
2022/07/19 07:56:14;;;;;;;8.50;5.30;;;;;;;;;;108995;1253;33749;-38
2022/07/19 07:58:47;;;;;;;9.00;5.50;;;;;;;;;;108973;1257;33839;-36
2022/07/19 08:01:19;;;;;;;8.00;5.40;;;;;;;;;;108896;1253;34225;-40
2022/07/19 08:03:51;;;;;;;8.10;5.20;;;;;;;;;;109053;1253;33868;-40
2022/07/19 08:06:24;;;;;;;8.10;5.60;;;;;;;;;;108968;1254;33711;-36
2022/07/19 08:08:56;;;;;;;6.90;5.10;;;;;;;;;;108901;1263;34417;-36
2022/07/19 08:11:28;;;;;;;7.20;5.50;;;;;;;;;;109067;1260;34602;-39
2022/07/19 08:14:01;;;;;;;8.40;5.50;;;;;;;;;;108954;1254;34275;-37
2022/07/19 08:16:33;;;;;;;7.20;5.10;;;;;;;;;;108977;1254;33869;-39
2022/07/19 08:19:05;;;;;;;8.60;5.50;;;;;;;;;;109091;1253;33296;-38
2022/07/19 08:21:38;;;;;;;6.90;4.80;;;;;;;;;;108891;1253;33714;-38
2022/07/19 08:24:12;;;;;;;8.00;5.30;;;;;;;;;;109048;1253;33756;-40
2022/07/19 08:26:45;;;;;;;8.60;5.20;;;;;;;;;;109005;1253;33329;-40
2022/07/19 08:29:17;;;;;;;8.00;5.20;;;;;;;;;;108899;1261;34216;-43
2022/07/19 08:31:49;;;;;;;6.40;4.80;;;;;;;;;;109075;1253;33851;-40
2022/07/19 08:34:21;;;;;;;7.50;5.40;;;;;;;;;;108968;1254;33329;-44
2022/07/19 08:36:56;;;;;;;7.90;5.30;;;;;;;;;;108905;1253;33755;-41
2022/07/19 08:39:28;;;;;;;8.90;5.00;;;;;;;;;;109022;1261;33426;-43
2022/07/19 08:42:00;;;;;;;12.10;6.50;;;;;;;;;;108896;1253;33847;-42
2022/07/19 08:44:38;;;;;;;13.70;7.00;;;;;;;;;;108936;1254;33771;-39
2022/07/19 08:47:12;;;;;;;13.60;7.00;;;;;;;;;;108633;1260;35769;-39
2022/07/19 08:49:46;;;;;;;13.40;6.50;;;;;;;;;;108871;1254;33916;-40
2022/07/19 08:52:19;;;;;;;14.50;6.50;;;;;;;;;;108865;1262;34348;-39
2022/07/19 08:54:52;;;;;;;16.30;6.60;;;;;;;;;;108828;1253;33958;-39
2022/07/19 09:00:18;;;;;;;15.70;7.10;;;;;;;;;;108859;1257;33785;-39
2022/07/19 09:02:59;;;;;;;11.40;6.00;;;;;;;;;;108843;1253;33994;-39
2022/07/19 09:05:34;;;;;;;13.60;6.60;;;;;;;;;;108851;1253;34196;-38
2022/07/19 09:08:13;;;;;;;14.00;6.90;;;;;;;;;;108844;1262;33394;-38
2022/07/19 09:11:14;;;;;;;9.90;6.10;;;;;;;;;;108852;1257;33870;-39
2022/07/19 09:13:41;;;;;;;13.10;6.40;;;;;;;;;;108841;1256;33865;-39
2022/07/19 09:16:16;;;;;;;12.20;6.70;;;;;;;;;;108806;1256;33839;-41
2022/07/19 09:18:48;;;;;;;11.30;5.50;;;;;;;;;;108854;1262;33318;-41
2022/07/19 09:21:21;;;;;;;12.50;6.70;;;;;;;;;;108805;1257;33347;-41
2022/07/19 09:23:59;;;;;;;8.50;5.50;;;;;;;;;;108811;1254;33877;-41
2022/07/19 09:26:31;;;;;;;13.90;6.40;;;;;;;;;;108775;1253;33917;-42
2022/07/19 09:29:20;;;;;;;11.20;5.70;;;;;;;;;;108826;1262;33754;-41
2022/07/19 09:32:05;;;;;;;8.90;5.60;;;;;;;;;;108804;1255;33430;-42
2022/07/19 09:34:39;;;;;;;8.90;5.50;;;;;;;;;;108821;1256;33949;-41
2022/07/19 09:37:21;;;;;;;11.20;5.20;;;;;;;;;;108852;1253;33730;-40
2022/07/19 09:39:56;;;;;;;11.50;5.00;;;;;;;;;;108854;1262;33843;-42
2022/07/19 09:42:38;;;;;;;10.70;5.30;;;;;;;;;;108817;1254;33833;-42
2022/07/19 09:45:18;;;;;;;10.10;5.00;;;;;;;;;;108792;1262;33918;-43
2022/07/19 09:47:56;;;;;;;8.10;4.70;;;;;;;;;;108835;1253;33874;-40
2022/07/19 09:50:28;;;;;;;8.40;5.00;;;;;;;;;;108834;1256;33828;-43
2022/07/19 09:53:05;;;;;;;8.90;4.30;;;;;;;;;;108866;1254;33950;-43
2022/07/19 09:55:38;;;;;;;7.30;4.40;;;;;;;;;;108821;1253;34055;-40
2022/07/19 09:58:10;;;;;;;9.20;4.60;;;;;;;;;;108825;1263;34339;-40
2022/07/19 10:00:44;;;;;;;6.60;4.10;;;;;;;;;;108808;1261;33361;-42
2022/07/19 10:03:19;;;;;;;7.80;4.00;;;;;;;;;;108826;1259;33861;-41
2022/07/19 10:05:54;;;;;;;6.20;4.00;;;;;;;;;;108827;1253;34320;-40
2022/07/19 10:08:26;;;;;;;7.40;4.20;;;;;;;;;;108840;1254;33881;-42
2022/07/19 10:10:58;;;;;;;7.10;3.90;;;;;;;;;;108837;1257;33858;-41
2022/07/19 10:13:31;;;;;;;6.60;4.10;;;;;;;;;;108806;1254;33989;-40
2022/07/19 10:16:06;;;;;;;6.40;3.80;;;;;;;;;;108825;1263;33830;-40
2022/07/19 10:18:57;;;;;;;6.80;3.70;;;;;;;;;;108821;1262;34135;-42
2022/07/19 10:21:29;;;;;;;6.30;3.90;;;;;;;;;;108803;1263;33882;-41
2022/07/19 10:24:02;;;;;;;6.10;3.50;;;;;;;;;;108833;1260;33448;-40
2022/07/19 10:26:43;;;;;;;8.10;4.20;;;;;;;;;;108781;1262;33845;-40
2022/07/19 10:29:17;;;;;;;7.40;3.40;;;;;;;;;;108837;1253;33720;-40
2022/07/19 10:32:08;;;;;;;6.70;3.70;;;;;;;;;;108797;1262;34408;-41
2022/07/19 10:34:41;;;;;;;7.00;3.80;;;;;;;;;;108810;1257;33839;-41
2022/07/19 10:37:13;;;;;;;;;;;;;;;;;;108823;1254;34321;-43
2022/07/19 10:39:46;;;;;;;8.80;3.90;;;;;;;;;;108810;1253;33555;-41
2022/07/19 10:42:21;;;;;;;6.10;3.30;;;;;;;;;;108823;1254;33876;-41
2022/07/19 10:45:27;;;;;;;6.10;3.20;;;;;;;;;;108846;1263;33285;-40
2022/07/19 10:48:15;;;;;;;6.00;3.60;;;;;;;;;;108858;1260;34317;-41
2022/07/19 10:51:03;;;;;;;5.20;3.10;;;;;;;;;;108815;1263;33955;-42
2022/07/19 10:54:08;;;;;;;6.30;2.90;;;;;;;;;;108828;1254;33810;-41
2022/07/19 10:56:56;;;;;;;6.10;3.90;;;;;;;;;;108810;1253;33767;-43
2022/07/19 10:59:48;;;;;;;5.40;3.20;;;;;;;;;;108819;1254;34638;-42
2022/07/19 11:02:27;;;;;;;5.80;3.30;;;;;;;;;;108795;1262;33384;-42
2022/07/19 11:04:59;;;;;;;5.40;3.20;;;;;;;;;;108813;1256;34003;-42
2022/07/19 11:07:31;;;;;;;5.70;3.10;;;;;;;;;;108770;1255;34174;-41
2022/07/19 11:10:05;;;;;;;5.10;3.30;;;;;;;;;;108823;1253;33747;-42
2022/07/19 11:12:38;;;;;;;6.40;3.20;;;;;;;;;;108817;1254;33885;-42
2022/07/19 11:15:16;;;;;;;5.70;3.20;;;;;;;;;;108827;1262;34315;-42
2022/07/19 11:18:03;;;;;;;5.80;3.30;;;;;;;;;;108842;1255;33820;-42
2022/07/19 11:20:39;;;;;;;5.70;3.40;;;;;;;;;;108840;1257;33765;-45
2022/07/19 11:23:17;;;;;;;5.40;3.10;;;;;;;;;;108867;1260;33790;-41
2022/07/19 11:25:51;;;;;;;5.20;3.30;;;;;;;;;;108818;1255;33734;-42
2022/07/19 11:28:27;;;;;;;4.30;2.90;;;;;;;;;;108823;1253;34064;-42
2022/07/19 11:30:59;;;;;;;4.80;2.90;;;;;;;;;;108862;1259;34188;-42
2022/07/19 11:33:31;;;;;;;5.60;3.20;;;;;;;;;;108814;1253;34070;-42
2022/07/19 11:36:04;;;;;;;5.70;3.40;;;;;;;;;;108811;1254;33384;-42
2022/07/19 11:38:44;;;;;;;;;;;;;;;;;;108851;1262;34236;-41
2022/07/19 11:41:21;;;;;;;4.60;3.00;;;;;;;;;;108831;1254;33513;-42
2022/07/19 11:43:57;;;;;;;5.70;3.20;;;;;;;;;;108795;1260;34415;-42
2022/07/19 11:46:32;;;;;;;5.30;3.00;;;;;;;;;;108821;1257;33817;-42
2022/07/19 11:49:07;;;;;;;4.90;3.10;;;;;;;;;;108789;1259;34072;-42
2022/07/19 11:51:40;;;;;;;4.80;2.80;;;;;;;;;;108802;1256;34495;-40
2022/07/19 11:54:13;;;;;;;4.60;2.90;;;;;;;;;;108802;1254;33863;-41
2022/07/19 11:56:45;;;;;;;;;;;;;;;;;;108811;1262;34219;-42
2022/07/19 11:59:18;;;;;;;5.40;3.00;;;;;;;;;;108807;1256;33886;-41
2022/07/19 12:01:57;;;;;;;6.00;2.80;;;;;;;;;;108680;1257;33423;-44
2022/07/19 12:04:38;;;;;;;4.70;2.70;;;;;;;;;;108773;1259;33871;-43
2022/07/19 12:07:10;;;;;;;5.20;3.20;;;;;;;;;;108788;1259;33910;-41
2022/07/19 12:09:42;;;;;;;5.60;3.00;;;;;;;;;;108760;1257;34052;-42
2022/07/19 12:12:20;;;;;;;5.00;2.90;;;;;;;;;;108765;1259;33838;-43
2022/07/19 12:15:09;;;;;;;4.70;2.50;;;;;;;;;;108817;1259;34460;-45
2022/07/19 12:17:57;;;;;;;4.80;2.60;;;;;;;;;;108822;1259;33524;-43
2022/07/19 12:20:30;;;;;;;4.30;2.70;;;;;;;;;;108790;1254;33345;-43
2022/07/19 12:23:21;;;;;;;4.90;2.80;;;;;;;;;;108802;1262;34291;-42
2022/07/19 12:25:54;;;;;;;4.90;2.60;;;;;;;;;;108782;1254;33826;-43
2022/07/19 12:28:30;;;;;;;5.40;2.90;;;;;;;;;;108808;1263;33329;-41
2022/07/19 12:31:08;;;;;;;4.80;2.70;;;;;;;;;;108823;1254;33951;-41
2022/07/19 12:33:40;;;;;;;5.40;3.00;;;;;;;;;;108811;1254;33759;-44
2022/07/19 12:36:35;;;;;;;5.50;2.80;;;;;;;;;;108808;1256;33791;-43
2022/07/19 12:39:20;;;;;;;4.70;2.90;;;;;;;;;;108786;1262;33778;-41
2022/07/19 12:42:09;;;;;;;5.30;2.80;;;;;;;;;;108785;1257;34261;-43
2022/07/19 12:44:42;;;;;;;5.00;2.70;;;;;;;;;;108557;1259;304560;-42
2022/07/19 12:47:17;;;;;;;5.20;2.80;;;;;;;;;;108820;1260;33395;-44
2022/07/19 12:49:51;;;;;;;5.00;3.10;;;;;;;;;;108854;1262;34115;-43
2022/07/19 12:52:23;;;;;;;5.60;3.20;;;;;;;;;;108836;1256;33978;-42
2022/07/19 12:54:56;;;;;;;5.80;3.10;;;;;;;;;;108803;1257;33923;-43
2022/07/19 12:57:29;;;;;;;5.30;3.20;;;;;;;;;;108780;1255;33791;-43
2022/07/19 13:00:02;;;;;;;5.30;2.80;;;;;;;;;;108773;1262;34424;-42
2022/07/19 13:02:34;;;;;;;5.40;2.80;;;;;;;;;;108769;1263;34295;-43
2022/07/19 13:05:11;;;;;;;4.80;2.90;;;;;;;;;;108796;1260;34074;-41
2022/07/19 13:07:43;;;;;;;5.90;2.70;;;;;;;;;;108779;1260;34051;-42
2022/07/19 13:10:16;;;;;;;5.40;2.70;;;;;;;;;;108733;1256;34671;-41
2022/07/19 13:12:48;;;;;;;4.60;2.80;;;;;;;;;;108782;1259;33972;-42
2022/07/19 13:15:22;;;;;;;5.10;3.10;;;;;;;;;;108736;1254;34691;-41
2022/07/19 13:17:54;;;;;;;5.00;2.80;;;;;;;;;;108753;1254;33812;-43
2022/07/19 13:20:26;;;;;;;4.90;3.00;;;;;;;;;;108753;1254;34278;-46
2022/07/19 13:23:01;;;;;;;5.20;3.00;;;;;;;;;;108772;1262;33306;-44
2022/07/19 13:25:33;;;;;;;4.60;2.90;;;;;;;;;;108727;1263;34535;-43
2022/07/19 13:28:06;;;;;;;4.60;3.00;;;;;;;;;;108749;1260;35019;-43
2022/07/19 13:30:38;;;;;;;4.60;2.70;;;;;;;;;;108769;1254;33275;-43
2022/07/19 13:33:10;;;;;;;5.20;2.90;;;;;;;;;;108756;1262;33290;-41
2022/07/19 13:35:41;;;;;;;5.00;3.10;;;;;;;;;;108729;1254;34434;-44
2022/07/19 13:38:13;;;;;;;5.10;2.70;;;;;;;;;;108762;1259;33852;-43
2022/07/19 13:40:46;;;;;;;5.20;2.70;;;;;;;;;;108759;1257;33708;-42
2022/07/19 13:43:17;;;;;;;5.00;2.80;;;;;;;;;;108753;1254;33765;-43
2022/07/19 13:45:53;;;;;;;4.90;2.90;;;;;;;;;;108739;1255;33839;-45
2022/07/19 13:48:25;;;;;;;5.40;2.80;;;;;;;;;;108734;1264;33853;-43
2022/07/19 13:50:57;;;;;;;4.30;2.80;;;;;;;;;;108763;1254;33729;-41
2022/07/19 13:53:29;;;;;;;4.60;3.30;;;;;;;;;;108719;1259;33846;-44
2022/07/19 13:56:03;;;;;;;4.40;2.90;;;;;;;;;;108723;1263;34152;-44
2022/07/19 13:58:36;;;;;;;5.50;2.60;;;;;;;;;;108750;1254;34067;-45
2022/07/19 14:01:08;;;;;;;5.20;2.90;;;;;;;;;;108741;1255;33411;-44
2022/07/19 14:03:41;;;;;;;5.20;2.90;;;;;;;;;;108745;1254;33711;-44
2022/07/19 14:06:13;;;;;;;5.50;3.20;;;;;;;;;;108728;1260;34064;-42
2022/07/19 14:08:45;;;;;;;6.10;2.70;;;;;;;;;;108754;1263;33872;-39
2022/07/19 14:11:20;;;;;;;5.60;3.00;;;;;;;;;;108693;1262;34706;-38
2022/07/19 14:13:52;;;;;;;4.90;2.70;;;;;;;;;;108853;1259;34285;-36
2022/07/19 14:16:25;;;;;;;5.20;2.90;;;;;;;;;;109070;1260;34050;-42
2022/07/19 14:18:57;;;;;;;4.90;3.40;;;;;;;;;;108775;1260;34383;-46
2022/07/19 14:21:31;;;;;;;5.20;3.20;;;;;;;;;;108742;1256;34208;-42
2022/07/19 14:24:04;;;;;;;5.00;3.20;;;;;;;;;;108696;1254;33369;-43
2022/07/19 14:26:36;;;;;;;4.50;3.00;;;;;;;;;;108748;1259;33926;-43
2022/07/19 14:29:09;;;;;;;4.90;3.00;;;;;;;;;;108731;1254;34294;-41
2022/07/19 14:31:43;;;;;;;5.50;3.50;;;;;;;;;;108758;1253;33798;-48
2022/07/19 14:34:16;;;;;;;5.40;3.40;;;;;;;;;;108740;1254;33971;-43
2022/07/19 14:36:48;;;;;;;4.20;2.70;;;;;;;;;;108807;1254;33858;-44
2022/07/19 14:39:23;;;;;;;4.70;2.90;;;;;;;;;;108780;1260;33512;-46
2022/07/19 14:42:00;;;;;;;5.90;3.00;;;;;;;;;;108770;1254;33832;-40
2022/07/19 14:44:35;;;;;;;4.80;3.20;;;;;;;;;;108740;1257;33778;-42
2022/07/19 14:47:08;;;;;;;5.40;2.80;;;;;;;;;;108784;1253;34250;-47
2022/07/19 14:49:46;;;;;;;5.20;2.90;;;;;;;;;;108780;1262;33741;-45
2022/07/19 14:52:18;;;;;;;5.40;3.10;;;;;;;;;;108767;1260;33274;-40
2022/07/19 14:54:51;;;;;;;5.00;3.30;;;;;;;;;;108791;1263;34367;-44
2022/07/19 14:57:24;;;;;;;4.60;2.90;;;;;;;;;;108780;1254;34042;-46
2022/07/19 14:59:56;;;;;;;5.20;2.90;;;;;;;;;;108794;1262;33989;-40
2022/07/19 15:02:28;;;;;;;5.30;3.10;;;;;;;;;;108766;1263;33351;-42
2022/07/19 15:05:05;;;;;;;5.10;2.90;;;;;;;;;;108782;1254;33787;-43
2022/07/19 15:07:38;;;;;;;5.30;2.90;;;;;;;;;;108757;1253;33398;-43
2022/07/19 15:10:10;;;;;;;;;;;;;;;;;;108794;1258;33323;-38
2022/07/19 15:12:45;;;;;;;5.20;2.70;;;;;;;;;;108771;1253;33445;-35
2022/07/19 15:15:18;;;;;;;5.70;3.40;;;;;;;;;;108702;1254;33687;-40